Gladwin, Michigan
Current Conditions -  °F | °C
As of 11:15 AM on Wednesday 26 Nov 2014 (Local Time) from KIKW Reporting Station
Overcast Overcast  
Wind Chill: 31°   Ceiling: 2900
Heat Index: 31°   Visibility: 10mi
Dew Point: 21°   Wind: 3mph
Humidity: 67%   Direction: 140°SE
Pressure: 30.18"   Gusts: NA
Location:  43.98°N, 84.49°W
Report Text: KIKW 261615Z AUTO 14003KT 10SM OVC029 M01/M06 A3018 RMK AO2 T10061061
Loading
Personal Weather Stations






























Interactive Weather Map New forecast layout! Learn more

10-Day Weather Forecast

Advertisements
Track Severe Weather on mobile